terça-feira, 15 de dezembro de 2009

Bad Weather

Well, looks like the weather yellow alert was proving right regarding the traffic at LPMA.
The TP1609 just diverted to Porto Santo and it looks like the cargo plane is already there...

On their way there's 3 Easyjet's and 1 TAP (besides all the other traffic after those)...lets see what will they do...

Current METAR for LPMA:
LPMA 151000Z 23016KT 5000 -SHRA BKN013 FEW018CB 19/17 Q1003 RERA RS23014G25KT 0523014G27KT

2 comentários:

  1. Boas Boas e só vento com + chuva...
    Ficamos a espera de dias melhores...

    ResponderExcluir
  2. Asas Madeira deseja para a sua bagagem de porão e de mão um feliz Natal e um bom ano novo;))

    ResponderExcluir